createdAt,value
2022-09-22T00:00:57.928Z,8.08
2022-09-22T00:03:43.678Z,8.01
2022-09-22T00:06:19.997Z,7.92
2022-09-22T00:08:52.227Z,7.88
2022-09-22T00:11:38.219Z,7.84
2022-09-22T00:14:15.063Z,7.79
2022-09-22T00:16:47.037Z,7.71
2022-09-22T00:19:19.989Z,7.64
2022-09-22T00:21:50.977Z,7.52
2022-09-22T00:24:26.935Z,7.40
2022-09-22T00:26:58.106Z,7.39
2022-09-22T00:29:29.094Z,7.43
2022-09-22T00:32:02.268Z,7.42
2022-09-22T00:34:35.532Z,7.40
2022-09-22T00:37:05.212Z,7.41
2022-09-22T00:39:35.621Z,7.41
2022-09-22T00:42:05.531Z,7.45
2022-09-22T00:44:41.779Z,7.43
2022-09-22T00:47:38.210Z,7.33
2022-09-22T00:50:16.217Z,7.26
2022-09-22T00:56:41.010Z,7.10
2022-09-22T00:59:17.173Z,7.06
2022-09-22T01:01:47.548Z,7.05
2022-09-22T01:04:18.150Z,7.07
2022-09-22T01:06:48.423Z,7.01
2022-09-22T01:09:18.160Z,7.01
2022-09-22T01:11:47.378Z,7.07
2022-09-22T01:14:55.254Z,7.10
2022-09-22T01:17:37.598Z,7.18
2022-09-22T01:20:15.699Z,7.24
2022-09-22T01:22:50.753Z,7.29
2022-09-22T01:25:22.130Z,7.34
2022-09-22T01:27:56.912Z,7.33
2022-09-22T01:30:44.298Z,7.32
2022-09-22T01:33:42.576Z,7.37
2022-09-22T01:36:22.229Z,7.41
2022-09-22T01:39:02.178Z,7.42
2022-09-22T01:41:40.502Z,7.49
2022-09-22T01:44:27.692Z,7.51
2022-09-22T01:47:02.796Z,7.54
2022-09-22T01:49:36.045Z,7.56
2022-09-22T01:52:10.876Z,7.61
2022-09-22T01:55:10.045Z,7.63
2022-09-22T01:57:49.637Z,7.64
2022-09-22T02:00:20.416Z,7.67
2022-09-22T02:03:01.572Z,7.72
2022-09-22T02:05:41.201Z,7.75
2022-09-22T02:08:22.426Z,7.76
2022-09-22T02:10:54.987Z,7.84
2022-09-22T02:13:24.348Z,7.91
2022-09-22T02:16:02.185Z,7.98
2022-09-22T02:18:46.046Z,8.01
2022-09-22T02:21:16.674Z,8.05
2022-09-22T02:23:47.380Z,8.07
2022-09-22T02:26:24.279Z,8.13
2022-09-22T02:28:57.219Z,8.20
2022-09-22T02:31:29.577Z,8.25
2022-09-22T02:33:59.965Z,8.29
2022-09-22T02:36:51.582Z,8.34
2022-09-22T02:39:26.443Z,8.41
2022-09-22T02:42:19.147Z,8.45
2022-09-22T02:45:20.330Z,8.46
2022-09-22T02:48:03.774Z,8.49
2022-09-22T02:50:34.968Z,8.52
2022-09-22T02:53:11.418Z,8.57
2022-09-22T02:55:41.819Z,8.62
2022-09-22T02:58:13.196Z,8.66
2022-09-22T03:00:42.839Z,8.70
2022-09-22T03:03:13.442Z,8.73
2022-09-22T03:05:42.388Z,8.76
2022-09-22T03:08:12.559Z,8.78
2022-09-22T03:10:43.110Z,8.81
2022-09-22T03:13:17.170Z,8.83
2022-09-22T03:15:50.349Z,8.85
2022-09-22T03:18:21.863Z,8.82
2022-09-22T03:20:51.999Z,8.81
2022-09-22T03:23:21.537Z,8.79
2022-09-22T03:25:50.417Z,8.77
2022-09-22T03:28:21.710Z,8.81
2022-09-22T03:30:51.514Z,8.83
2022-09-22T03:33:22.282Z,8.82
2022-09-22T03:35:51.667Z,8.82
2022-09-22T03:38:21.625Z,8.83
2022-09-22T03:40:52.969Z,8.82
2022-09-22T03:43:21.953Z,8.83
2022-09-22T03:45:58.553Z,8.86
2022-09-22T03:48:29.505Z,8.89
2022-09-22T03:51:00.856Z,8.94
2022-09-22T03:53:30.135Z,8.98
2022-09-22T03:56:13.751Z,8.99
2022-09-22T03:58:44.404Z,9.05
2022-09-22T04:01:14.073Z,9.10
2022-09-22T04:03:43.906Z,9.08
2022-09-22T04:06:13.852Z,9.08
2022-09-22T04:08:45.213Z,9.07
2022-09-22T04:11:14.999Z,9.06
2022-09-22T04:13:47.872Z,9.05
2022-09-22T04:16:18.200Z,9.09
2022-09-22T04:18:48.971Z,9.08
2022-09-22T04:21:17.898Z,9.12
2022-09-22T04:23:47.265Z,9.10
2022-09-22T04:26:16.410Z,9.05
2022-09-22T04:28:47.344Z,9.00
2022-09-22T04:31:17.541Z,8.99
2022-09-22T04:33:46.708Z,8.97
2022-09-22T04:36:17.478Z,8.96
2022-09-22T04:38:46.584Z,8.95
2022-09-22T04:41:17.510Z,8.93
2022-09-22T04:43:46.309Z,8.89
2022-09-22T04:46:15.323Z,8.85
2022-09-22T04:48:44.341Z,8.86
2022-09-22T04:51:13.141Z,8.90
2022-09-22T04:53:43.517Z,8.90
2022-09-22T04:56:15.603Z,8.93
2022-09-22T04:58:45.839Z,8.99
2022-09-22T05:01:16.009Z,9.02
2022-09-22T05:03:46.403Z,9.08
2022-09-22T05:06:15.226Z,9.12
2022-09-22T05:08:44.087Z,9.14
2022-09-22T05:11:13.911Z,9.11
2022-09-22T05:13:43.021Z,9.08
2022-09-22T05:16:12.446Z,9.04
2022-09-22T05:18:43.271Z,9.01
2022-09-22T05:21:15.225Z,9.02
2022-09-22T05:23:45.691Z,9.05
2022-09-22T05:26:17.142Z,9.09
2022-09-22T05:28:46.082Z,9.16
2022-09-22T05:31:15.926Z,9.24
2022-09-22T05:33:45.128Z,9.29
2022-09-22T05:36:13.929Z,9.28
2022-09-22T05:38:45.174Z,9.29
2022-09-22T05:41:14.063Z,9.33
2022-09-22T05:43:43.735Z,9.39
2022-09-22T05:46:14.753Z,9.44
2022-09-22T05:48:43.762Z,9.48
2022-09-22T05:51:12.914Z,9.56
2022-09-22T05:53:41.804Z,9.62
2022-09-22T05:56:10.686Z,9.71
2022-09-22T05:58:40.400Z,9.79
2022-09-22T06:01:10.013Z,9.89
2022-09-22T06:03:41.073Z,9.97
2022-09-22T06:06:10.588Z,10.03
2022-09-22T06:08:45.099Z,10.09
2022-09-22T06:11:18.958Z,10.12
2022-09-22T06:13:54.389Z,10.18
2022-09-22T06:16:24.810Z,10.30
2022-09-22T06:18:55.748Z,10.41
2022-09-22T06:21:26.291Z,10.57
2022-09-22T06:23:57.873Z,10.70
2022-09-22T06:26:27.679Z,10.90
2022-09-22T06:28:57.224Z,11.02
2022-09-22T06:31:26.993Z,11.14
2022-09-22T06:33:57.836Z,11.13
2022-09-22T06:36:31.810Z,11.12
2022-09-22T06:39:03.573Z,11.15
2022-09-22T06:41:34.674Z,11.18
2022-09-22T06:44:05.739Z,11.24
2022-09-22T06:46:34.994Z,11.32
2022-09-22T06:49:05.829Z,11.38
2022-09-22T06:51:39.275Z,11.45
2022-09-22T06:54:10.968Z,11.51
2022-09-22T06:56:43.211Z,11.60
2022-09-22T06:59:17.115Z,11.73
2022-09-22T07:01:46.475Z,11.96
2022-09-22T07:04:18.095Z,12.15
2022-09-22T07:06:47.476Z,12.29
2022-09-22T07:09:18.816Z,12.36
2022-09-22T07:11:49.414Z,12.47
2022-09-22T07:14:21.467Z,12.59
2022-09-22T07:16:52.430Z,12.71
2022-09-22T07:19:21.293Z,12.78
2022-09-22T07:21:51.868Z,12.88
2022-09-22T07:24:22.077Z,13.12
2022-09-22T07:26:52.219Z,13.39
2022-09-22T07:29:24.329Z,13.63
2022-09-22T07:31:54.913Z,13.94
2022-09-22T07:34:23.855Z,14.08
2022-09-22T07:36:55.498Z,14.22
2022-09-22T07:39:25.531Z,14.35
2022-09-22T07:41:54.557Z,14.40
2022-09-22T07:44:44.436Z,14.49
2022-09-22T07:47:13.781Z,14.72
2022-09-22T07:49:47.232Z,14.92
2022-09-22T07:52:17.054Z,15.03
2022-09-22T07:54:48.693Z,14.99
2022-09-22T07:57:18.422Z,15.03
2022-09-22T07:59:47.271Z,15.11
2022-09-22T08:02:16.433Z,15.20
2022-09-22T08:04:47.788Z,15.49
2022-09-22T08:07:17.157Z,16.34
2022-09-22T08:09:49.347Z,16.74
2022-09-22T08:12:18.373Z,16.68
2022-09-22T08:14:47.665Z,16.55
2022-09-22T08:17:17.765Z,16.48
2022-09-22T08:19:46.950Z,16.49
2022-09-22T08:22:16.477Z,16.64
2022-09-22T08:24:46.078Z,16.90
2022-09-22T08:27:14.932Z,17.17
2022-09-22T08:29:44.177Z,17.51
2022-09-22T08:32:15.415Z,17.84
2022-09-22T08:34:45.672Z,17.77
2022-09-22T08:37:16.578Z,17.85
2022-09-22T08:39:46.096Z,18.16
2022-09-22T08:42:23.807Z,19.01
2022-09-22T08:45:09.751Z,21.30
2022-09-22T08:48:08.892Z,23.52
2022-09-22T08:51:05.476Z,23.77
2022-09-22T08:53:41.835Z,23.19
2022-09-22T08:56:37.246Z,22.74
2022-09-22T08:59:19.788Z,22.46
2022-09-22T09:02:04.539Z,22.24
2022-09-22T09:05:00.989Z,22.29
2022-09-22T09:07:57.282Z,22.77
2022-09-22T09:10:46.194Z,23.11
2022-09-22T09:13:37.740Z,23.14
2022-09-22T09:16:09.929Z,23.00
2022-09-22T09:18:44.832Z,23.09
2022-09-22T09:21:16.223Z,23.57
2022-09-22T09:26:47.092Z,23.78
2022-09-22T09:29:23.146Z,23.77
2022-09-22T09:31:56.309Z,23.35
2022-09-22T09:34:29.507Z,22.82
2022-09-22T09:37:11.971Z,22.11
2022-09-22T09:39:45.078Z,21.57
2022-09-22T09:42:22.200Z,21.28
2022-09-22T09:44:55.495Z,21.23
2022-09-22T09:47:32.865Z,21.18
2022-09-22T09:50:03.935Z,21.11
2022-09-22T09:52:38.828Z,21.08
2022-09-22T09:55:27.590Z,21.13
2022-09-22T09:58:04.370Z,22.22
2022-09-22T10:00:53.530Z,24.26
2022-09-22T10:03:33.938Z,26.76
2022-09-22T10:06:09.100Z,28.81
2022-09-22T10:08:49.086Z,30.12
2022-09-22T10:11:31.408Z,30.73
2022-09-22T10:14:01.277Z,31.61
2022-09-22T10:16:36.470Z,33.03
2022-09-22T10:19:22.673Z,33.20
2022-09-22T10:21:52.176Z,30.87
2022-09-22T10:24:33.432Z,28.93
2022-09-22T10:27:06.835Z,26.90
2022-09-22T10:29:40.487Z,25.45
2022-09-22T10:32:17.280Z,24.35
2022-09-22T10:34:51.949Z,23.39
2022-09-22T10:37:28.439Z,22.60
2022-09-22T10:40:04.008Z,22.03
2022-09-22T10:42:37.297Z,22.33
2022-09-22T10:45:12.414Z,23.17
2022-09-22T10:47:58.406Z,23.93
2022-09-22T10:51:05.118Z,23.56
2022-09-22T10:53:53.031Z,22.92
2022-09-22T10:56:34.479Z,22.31
2022-09-22T10:59:39.192Z,21.59
2022-09-22T11:02:48.351Z,20.71
2022-09-22T11:05:50.246Z,19.90
2022-09-22T11:08:40.150Z,19.20
2022-09-22T11:11:48.931Z,18.80
2022-09-22T11:14:21.534Z,18.41
2022-09-22T11:17:24.508Z,18.22
2022-09-22T11:20:00.373Z,18.12
2022-09-22T11:22:53.101Z,18.11
2022-09-22T11:26:02.322Z,18.08
2022-09-22T11:28:44.099Z,18.07
2022-09-22T11:31:38.044Z,18.09
2022-09-22T11:34:33.725Z,18.13
2022-09-22T11:37:39.068Z,18.23
2022-09-22T11:40:20.095Z,18.54
2022-09-22T11:43:10.173Z,18.61
2022-09-22T11:46:07.654Z,18.67
2022-09-22T11:48:36.480Z,18.56
2022-09-22T11:51:11.510Z,18.34
2022-09-22T11:53:56.358Z,18.27
2022-09-22T11:56:42.554Z,18.26
2022-09-22T11:59:36.306Z,18.39
2022-09-22T12:02:21.762Z,19.17
2022-09-22T12:05:04.719Z,20.17
2022-09-22T12:07:45.171Z,20.90
2022-09-22T12:10:23.414Z,21.17
2022-09-22T12:12:53.542Z,21.19
2022-09-22T12:15:38.711Z,21.02
2022-09-22T12:18:23.958Z,20.65
2022-09-22T12:21:24.833Z,20.34
2022-09-22T12:23:55.600Z,19.93
2022-09-22T12:26:35.598Z,19.56
2022-09-22T12:29:30.085Z,19.29
2022-09-22T12:32:02.597Z,18.99
2022-09-22T12:34:40.574Z,19.31
2022-09-22T12:37:21.066Z,20.27
2022-09-22T12:39:52.381Z,21.20
2022-09-22T12:42:36.467Z,22.00
2022-09-22T12:45:33.109Z,22.73
2022-09-22T12:48:10.897Z,23.11
2022-09-22T12:50:44.879Z,23.20
2022-09-22T12:53:23.386Z,23.33
2022-09-22T12:55:55.920Z,23.63
2022-09-22T12:58:41.582Z,23.70
2022-09-22T13:01:38.407Z,23.07
2022-09-22T13:04:18.632Z,22.19
2022-09-22T13:06:47.471Z,21.53
2022-09-22T13:09:24.588Z,20.99
2022-09-22T13:12:28.767Z,20.47
2022-09-22T13:15:07.853Z,20.20
2022-09-22T13:17:48.631Z,20.22
2022-09-22T13:20:31.012Z,20.26
2022-09-22T13:23:13.860Z,20.02
2022-09-22T13:25:44.594Z,19.72
2022-09-22T13:28:15.505Z,19.46
2022-09-22T13:30:46.326Z,19.20
2022-09-22T13:33:26.651Z,18.92
2022-09-22T13:36:23.989Z,18.74
2022-09-22T13:38:56.891Z,18.64
2022-09-22T13:41:30.116Z,18.55
2022-09-22T13:44:03.544Z,18.36
2022-09-22T13:46:47.170Z,18.39
2022-09-22T13:49:27.729Z,18.41
2022-09-22T13:52:05.882Z,18.32
2022-09-22T13:54:37.958Z,18.06
2022-09-22T13:57:20.487Z,17.85
2022-09-22T13:59:52.173Z,17.68
2022-09-22T14:02:30.750Z,17.57
2022-09-22T14:05:37.724Z,17.42
2022-09-22T14:08:12.847Z,17.25
2022-09-22T14:10:47.440Z,17.11
2022-09-22T14:13:41.241Z,16.90
2022-09-22T14:16:30.926Z,16.53
2022-09-22T14:19:29.658Z,16.00
2022-09-22T14:22:05.046Z,15.45
2022-09-22T14:24:38.202Z,15.13
2022-09-22T14:27:18.607Z,14.87
2022-09-22T14:29:52.466Z,14.69
2022-09-22T14:32:32.079Z,14.51
2022-09-22T14:35:06.147Z,14.39
2022-09-22T14:37:42.396Z,14.28
2022-09-22T14:40:23.529Z,14.16
2022-09-22T14:43:05.936Z,14.11
2022-09-22T14:45:40.381Z,14.07
2022-09-22T14:48:23.471Z,14.08
2022-09-22T14:50:54.932Z,14.15
2022-09-22T14:53:32.962Z,14.17
2022-09-22T14:56:07.394Z,14.06
2022-09-22T14:58:42.361Z,14.08
2022-09-22T15:01:56.229Z,14.49
2022-09-22T15:04:31.529Z,14.78
2022-09-22T15:07:02.459Z,14.85
2022-09-22T15:09:43.159Z,15.11
2022-09-22T15:12:44.021Z,15.23
2022-09-22T15:15:21.423Z,15.36
2022-09-22T15:18:16.355Z,15.39
2022-09-22T15:20:50.353Z,15.39
2022-09-22T15:23:21.976Z,15.25
2022-09-22T15:25:53.677Z,15.08
2022-09-22T15:28:27.383Z,15.01
2022-09-22T15:30:59.056Z,14.90
2022-09-22T15:33:34.352Z,14.71
2022-09-22T15:36:16.358Z,14.49
2022-09-22T15:38:45.497Z,14.24
2022-09-22T15:41:16.841Z,13.98
2022-09-22T15:43:46.064Z,13.71
2022-09-22T15:46:26.995Z,13.45
2022-09-22T15:49:03.527Z,13.27
2022-09-22T15:51:34.846Z,13.12
2022-09-22T15:54:07.044Z,12.98
2022-09-22T15:56:39.879Z,12.88
2022-09-22T15:59:20.101Z,12.86
2022-09-22T16:01:52.290Z,12.90
2022-09-22T16:04:22.589Z,12.92
2022-09-22T16:06:59.050Z,12.91
2022-09-22T16:09:32.621Z,12.87
2022-09-22T16:12:08.988Z,12.82
2022-09-22T16:14:39.906Z,12.75
2022-09-22T16:17:08.830Z,12.73
2022-09-22T16:19:41.839Z,12.72
2022-09-22T16:22:12.817Z,12.71
2022-09-22T16:24:49.159Z,12.72
2022-09-22T16:27:20.635Z,12.66
2022-09-22T16:29:51.498Z,12.63
2022-09-22T16:32:22.207Z,12.62
2022-09-22T16:34:51.683Z,12.63
2022-09-22T16:37:22.283Z,12.63
2022-09-22T16:39:57.442Z,12.62
2022-09-22T16:42:27.781Z,12.57
2022-09-22T16:44:59.024Z,12.56
2022-09-22T16:47:29.939Z,12.53
2022-09-22T16:50:01.252Z,12.53
2022-09-22T16:52:32.511Z,12.48
2022-09-22T16:55:05.583Z,12.42
2022-09-22T16:57:35.186Z,12.30
2022-09-22T17:00:07.310Z,12.27
2022-09-22T17:02:37.473Z,12.26
2022-09-22T17:05:11.674Z,12.29
2022-09-22T17:07:41.662Z,12.34
2022-09-22T17:10:11.090Z,12.33
2022-09-22T17:12:43.468Z,12.27
2022-09-22T17:15:13.845Z,12.26
2022-09-22T17:17:45.197Z,12.27
2022-09-22T17:20:16.038Z,12.28
2022-09-22T17:22:47.438Z,12.31
2022-09-22T17:25:16.868Z,12.31
2022-09-22T17:27:47.801Z,12.32
2022-09-22T17:30:19.337Z,12.28
2022-09-22T17:32:49.228Z,12.25
2022-09-22T17:35:21.130Z,12.22
2022-09-22T17:37:53.777Z,12.19
2022-09-22T17:40:32.163Z,12.20
2022-09-22T17:43:06.957Z,12.19
2022-09-22T17:45:36.725Z,12.15
2022-09-22T17:48:25.488Z,12.16
2022-09-22T17:51:14.358Z,12.10
2022-09-22T17:54:05.253Z,11.84
2022-09-22T17:56:40.214Z,11.62
2022-09-22T17:59:11.490Z,11.57
2022-09-22T18:01:44.765Z,11.56
2022-09-22T18:04:15.180Z,11.52
2022-09-22T18:06:49.366Z,11.43
2022-09-22T18:09:43.731Z,11.43
2022-09-22T18:12:21.764Z,11.47
2022-09-22T18:14:55.759Z,11.53
2022-09-22T18:17:27.142Z,11.54
2022-09-22T18:20:00.529Z,11.55
2022-09-22T18:22:31.472Z,11.57
2022-09-22T18:25:02.163Z,11.55
2022-09-22T18:27:32.722Z,11.55
2022-09-22T18:30:05.661Z,11.52
2022-09-22T18:32:40.480Z,11.46
2022-09-22T18:35:15.336Z,11.42
2022-09-22T18:37:46.242Z,11.41
2022-09-22T18:40:20.397Z,11.40
2022-09-22T18:42:50.535Z,11.35
2022-09-22T18:45:23.725Z,11.31
2022-09-22T18:48:00.182Z,11.27
2022-09-22T18:50:38.493Z,11.24
2022-09-22T18:53:07.554Z,11.19
2022-09-22T18:55:39.973Z,11.13
2022-09-22T18:58:13.066Z,11.06
2022-09-22T19:00:46.431Z,10.98
2022-09-22T19:03:19.011Z,10.89
2022-09-22T19:05:48.909Z,10.82
2022-09-22T19:08:21.979Z,10.76
2022-09-22T19:10:52.186Z,10.73
2022-09-22T19:13:21.531Z,10.69
2022-09-22T19:15:56.141Z,10.66
2022-09-22T19:18:28.351Z,10.62
2022-09-22T19:21:04.400Z,10.59
2022-09-22T19:23:37.480Z,10.56
2022-09-22T19:26:09.233Z,10.53
2022-09-22T19:28:39.964Z,10.52
2022-09-22T19:31:16.836Z,10.50
2022-09-22T19:33:46.342Z,10.46
2022-09-22T19:36:19.532Z,10.44
2022-09-22T19:38:52.380Z,10.41
2022-09-22T19:41:22.409Z,10.34
2022-09-22T19:43:55.119Z,10.24
2022-09-22T19:46:26.737Z,10.18
2022-09-22T19:49:00.640Z,10.15
2022-09-22T19:51:32.655Z,10.16
2022-09-22T19:54:13.153Z,10.15
2022-09-22T19:56:42.706Z,10.12
2022-09-22T19:59:13.726Z,10.10
2022-09-22T20:01:43.812Z,10.06
2022-09-22T20:04:19.891Z,9.98
2022-09-22T20:06:50.272Z,9.93
2022-09-22T20:12:27.333Z,9.75
2022-09-22T20:14:56.415Z,9.68
2022-09-22T20:17:25.690Z,9.63
2022-09-22T20:19:58.915Z,9.56
2022-09-22T20:22:30.009Z,9.48
2022-09-22T20:25:01.842Z,9.46
2022-09-22T20:27:34.299Z,9.38
2022-09-22T20:30:04.046Z,9.29
2022-09-22T20:32:34.952Z,9.20
2022-09-22T20:35:04.470Z,9.10
2022-09-22T20:37:34.937Z,9.01
2022-09-22T20:40:07.450Z,8.95
2022-09-22T20:42:39.334Z,8.94
2022-09-22T20:45:12.028Z,8.94
2022-09-22T20:47:42.439Z,8.93
2022-09-22T20:50:15.970Z,8.90
2022-09-22T20:52:45.248Z,8.89
2022-09-22T20:55:19.304Z,8.90
2022-09-22T20:57:52.138Z,8.91
2022-09-22T21:00:23.411Z,8.83
2022-09-22T21:02:56.382Z,8.68
2022-09-22T21:05:25.473Z,8.52
2022-09-22T21:08:15.930Z,8.41
2022-09-22T21:10:45.805Z,8.35
2022-09-22T21:13:21.647Z,8.31
2022-09-22T21:16:03.989Z,8.27
2022-09-22T21:18:40.531Z,8.25
2022-09-22T21:21:09.735Z,8.24
2022-09-22T21:23:38.739Z,8.24
2022-09-22T21:26:12.835Z,8.23
2022-09-22T21:28:44.667Z,8.25
2022-09-22T21:31:14.989Z,8.27
2022-09-22T21:33:45.305Z,8.27
2022-09-22T21:36:21.413Z,8.25
2022-09-22T21:38:58.085Z,8.22
2022-09-22T21:41:30.963Z,8.22
2022-09-22T21:44:00.485Z,8.24
2022-09-22T21:46:31.334Z,8.27
2022-09-22T21:49:03.871Z,8.25
2022-09-22T21:51:37.603Z,8.23
2022-09-22T21:54:17.137Z,8.22
2022-09-22T21:56:46.952Z,8.17
2022-09-22T21:59:17.899Z,8.13
2022-09-22T22:01:49.010Z,8.12
2022-09-22T22:04:17.995Z,8.05
2022-09-22T22:06:48.889Z,7.90
2022-09-22T22:09:23.429Z,7.71
2022-09-22T22:11:56.819Z,7.62
2022-09-22T22:14:33.946Z,7.53
2022-09-22T22:17:06.072Z,7.52
2022-09-22T22:19:35.032Z,7.54
2022-09-22T22:22:07.430Z,7.56
2022-09-22T22:24:42.646Z,7.54
2022-09-22T22:27:14.016Z,7.52
2022-09-22T22:29:47.086Z,7.50
2022-09-22T22:32:16.483Z,7.50
2022-09-22T22:34:45.796Z,7.49
2022-09-22T22:37:15.235Z,7.45
2022-09-22T22:39:44.743Z,7.41
2022-09-22T22:42:13.709Z,7.35
2022-09-22T22:44:44.565Z,7.32
2022-09-22T22:47:17.574Z,7.29
2022-09-22T22:49:47.358Z,7.29
2022-09-22T22:52:18.907Z,7.27
2022-09-22T22:54:50.261Z,7.23
2022-09-22T22:57:19.872Z,7.26
2022-09-22T22:59:52.445Z,7.28
2022-09-22T23:02:22.539Z,7.26
2022-09-22T23:04:54.819Z,7.27
2022-09-22T23:07:24.181Z,7.29
2022-09-22T23:10:06.986Z,7.33
2022-09-22T23:12:40.454Z,7.34
2022-09-22T23:15:12.142Z,7.29
2022-09-22T23:17:40.980Z,7.28
2022-09-22T23:20:13.208Z,7.36
2022-09-22T23:22:44.352Z,7.44
2022-09-22T23:25:14.866Z,7.49
2022-09-22T23:27:49.414Z,7.52
2022-09-22T23:30:20.162Z,7.56
2022-09-22T23:32:50.837Z,7.57
2022-09-22T23:35:20.101Z,7.61
2022-09-22T23:37:51.748Z,7.64
2022-09-22T23:40:20.813Z,7.62
2022-09-22T23:42:53.235Z,7.52
2022-09-22T23:45:23.332Z,7.41
2022-09-22T23:47:55.095Z,7.38
2022-09-22T23:50:24.178Z,7.40
2022-09-22T23:52:56.903Z,7.40
2022-09-22T23:55:26.431Z,7.38
2022-09-22T23:57:58.694Z,7.36
